Terminal Aerodrome Forecast
Issued by NWS Pendleton, OR

Home | Current Version | Previous Version | Text Only | Print | Product List | Glossary On
Versions: 1 2 3 4 5 6 7 8 9 10 11 12
000
FTUS46 KPDT 041720
TAFPDT
TAF
KPDT 041720Z 0418/0518 20006KT P6SM SCT250
     FM041900 30009KT P6SM SCT250
     FM050600 12006KT P6SM SKC
     FM051500 27008KT P6SM FEW120=

USA.gov is the U.S. government's official web portal to all federal, state and local government web resources and services.